sensor_id;sensor_type;location;lat;lon;timestamp;P1;durP1;ratioP1;P2;durP2;ratioP2
27796;SDS011;15177;50.844;4.412;2023-08-21T00:01:40;7.32;;;2.20;;
27796;SDS011;15177;50.844;4.412;2023-08-21T00:04:05;9.20;;;2.33;;
27796;SDS011;15177;50.844;4.412;2023-08-21T00:06:31;9.13;;;2.20;;
27796;SDS011;15177;50.844;4.412;2023-08-21T00:08:57;10.45;;;2.72;;
27796;SDS011;15177;50.844;4.412;2023-08-21T00:11:23;11.07;;;2.20;;
27796;SDS011;15177;50.844;4.412;2023-08-21T00:13:48;9.40;;;2.55;;
27796;SDS011;15177;50.844;4.412;2023-08-21T00:16:14;7.65;;;2.35;;
27796;SDS011;15177;50.844;4.412;2023-08-21T00:18:41;9.25;;;3.13;;
27796;SDS011;15177;50.844;4.412;2023-08-21T00:21:07;10.50;;;2.33;;
27796;SDS011;15177;50.844;4.412;2023-08-21T00:23:32;8.63;;;2.35;;
27796;SDS011;15177;50.844;4.412;2023-08-21T00:25:58;8.70;;;2.03;;
27796;SDS011;15177;50.844;4.412;2023-08-21T00:28:24;8.15;;;1.73;;
27796;SDS011;15177;50.844;4.412;2023-08-21T00:30:49;10.80;;;2.47;;
27796;SDS011;15177;50.844;4.412;2023-08-21T00:33:15;7.85;;;2.30;;
27796;SDS011;15177;50.844;4.412;2023-08-21T00:35:41;11.57;;;2.35;;
27796;SDS011;15177;50.844;4.412;2023-08-21T00:38:07;12.95;;;3.30;;
27796;SDS011;15177;50.844;4.412;2023-08-21T00:40:33;7.75;;;2.00;;
27796;SDS011;15177;50.844;4.412;2023-08-21T00:42:59;6.90;;;2.13;;
27796;SDS011;15177;50.844;4.412;2023-08-21T00:45:25;10.70;;;2.13;;
27796;SDS011;15177;50.844;4.412;2023-08-21T00:47:50;8.32;;;2.67;;
27796;SDS011;15177;50.844;4.412;2023-08-21T00:50:16;9.75;;;2.38;;
27796;SDS011;15177;50.844;4.412;2023-08-21T00:52:43;8.10;;;2.35;;
27796;SDS011;15177;50.844;4.412;2023-08-21T00:55:11;9.25;;;2.50;;
27796;SDS011;15177;50.844;4.412;2023-08-21T00:57:38;9.05;;;2.08;;
27796;SDS011;15177;50.844;4.412;2023-08-21T01:00:04;10.27;;;2.67;;
27796;SDS011;15177;50.844;4.412;2023-08-21T01:02:30;9.98;;;3.33;;
27796;SDS011;15177;50.844;4.412;2023-08-21T01:04:56;11.77;;;2.35;;
27796;SDS011;15177;50.844;4.412;2023-08-21T01:07:21;8.30;;;2.50;;
27796;SDS011;15177;50.844;4.412;2023-08-21T01:15:17;9.68;;;2.50;;
27796;SDS011;15177;50.844;4.412;2023-08-21T01:17:43;8.07;;;2.38;;
27796;SDS011;15177;50.844;4.412;2023-08-21T01:20:11;12.90;;;3.05;;
27796;SDS011;15177;50.844;4.412;2023-08-21T01:22:40;8.23;;;2.70;;
27796;SDS011;15177;50.844;4.412;2023-08-21T01:25:13;9.23;;;2.65;;
27796;SDS011;15177;50.844;4.412;2023-08-21T01:27:43;12.18;;;2.55;;
27796;SDS011;15177;50.844;4.412;2023-08-21T01:30:13;9.27;;;2.40;;
27796;SDS011;15177;50.844;4.412;2023-08-21T01:32:43;14.57;;;2.90;;
27796;SDS011;15177;50.844;4.412;2023-08-21T01:35:16;8.77;;;2.28;;
27796;SDS011;15177;50.844;4.412;2023-08-21T01:37:42;9.05;;;2.55;;
27796;SDS011;15177;50.844;4.412;2023-08-21T01:40:09;8.73;;;2.65;;
27796;SDS011;15177;50.844;4.412;2023-08-21T01:42:35;6.90;;;2.58;;
27796;SDS011;15177;50.844;4.412;2023-08-21T01:45:00;10.52;;;2.50;;
27796;SDS011;15177;50.844;4.412;2023-08-21T01:47:26;9.88;;;2.65;;
27796;SDS011;15177;50.844;4.412;2023-08-21T01:49:52;8.85;;;2.85;;
27796;SDS011;15177;50.844;4.412;2023-08-21T01:52:18;9.02;;;2.72;;
27796;SDS011;15177;50.844;4.412;2023-08-21T01:54:44;9.10;;;2.92;;
27796;SDS011;15177;50.844;4.412;2023-08-21T01:57:09;10.88;;;2.83;;
27796;SDS011;15177;50.844;4.412;2023-08-21T01:59:35;4.72;;;2.33;;
27796;SDS011;15177;50.844;4.412;2023-08-21T02:02:01;8.10;;;2.58;;
27796;SDS011;15177;50.844;4.412;2023-08-21T02:04:26;10.75;;;2.33;;
27796;SDS011;15177;50.844;4.412;2023-08-21T02:06:52;13.38;;;2.67;;
27796;SDS011;15177;50.844;4.412;2023-08-21T02:09:18;11.38;;;2.55;;
27796;SDS011;15177;50.844;4.412;2023-08-21T02:11:43;11.95;;;2.72;;
27796;SDS011;15177;50.844;4.412;2023-08-21T02:14:09;11.40;;;2.95;;
27796;SDS011;15177;50.844;4.412;2023-08-21T02:16:34;15.57;;;2.92;;
27796;SDS011;15177;50.844;4.412;2023-08-21T02:19:00;12.30;;;2.78;;
27796;SDS011;15177;50.844;4.412;2023-08-21T02:21:26;12.43;;;2.83;;
27796;SDS011;15177;50.844;4.412;2023-08-21T02:23:51;13.10;;;2.80;;
27796;SDS011;15177;50.844;4.412;2023-08-21T02:26:17;11.95;;;2.50;;
27796;SDS011;15177;50.844;4.412;2023-08-21T02:28:44;10.07;;;2.40;;
27796;SDS011;15177;50.844;4.412;2023-08-21T02:31:10;11.98;;;3.38;;
27796;SDS011;15177;50.844;4.412;2023-08-21T02:33:36;13.95;;;2.33;;
27796;SDS011;15177;50.844;4.412;2023-08-21T02:36:02;11.88;;;2.20;;
27796;SDS011;15177;50.844;4.412;2023-08-21T02:38:28;10.43;;;2.38;;
27796;SDS011;15177;50.844;4.412;2023-08-21T02:40:54;7.25;;;2.00;;
27796;SDS011;15177;50.844;4.412;2023-08-21T02:43:20;16.10;;;3.28;;
27796;SDS011;15177;50.844;4.412;2023-08-21T02:45:46;6.47;;;1.75;;
27796;SDS011;15177;50.844;4.412;2023-08-21T02:48:12;13.50;;;2.95;;
27796;SDS011;15177;50.844;4.412;2023-08-21T02:50:37;10.63;;;2.65;;
27796;SDS011;15177;50.844;4.412;2023-08-21T02:53:03;10.95;;;2.63;;
27796;SDS011;15177;50.844;4.412;2023-08-21T02:55:29;8.65;;;2.58;;
27796;SDS011;15177;50.844;4.412;2023-08-21T02:57:54;8.80;;;2.17;;
27796;SDS011;15177;50.844;4.412;2023-08-21T03:00:20;10.40;;;2.75;;
27796;SDS011;15177;50.844;4.412;2023-08-21T03:02:46;12.85;;;2.40;;
27796;SDS011;15177;50.844;4.412;2023-08-21T03:05:11;7.88;;;2.22;;
27796;SDS011;15177;50.844;4.412;2023-08-21T03:07:38;9.48;;;2.90;;
27796;SDS011;15177;50.844;4.412;2023-08-21T03:10:04;10.75;;;2.60;;
27796;SDS011;15177;50.844;4.412;2023-08-21T03:12:32;13.20;;;2.65;;
27796;SDS011;15177;50.844;4.412;2023-08-21T03:14:57;8.57;;;2.75;;
27796;SDS011;15177;50.844;4.412;2023-08-21T03:17:23;12.70;;;2.58;;
27796;SDS011;15177;50.844;4.412;2023-08-21T03:19:49;14.63;;;2.65;;
27796;SDS011;15177;50.844;4.412;2023-08-21T03:22:15;9.95;;;2.22;;
27796;SDS011;15177;50.844;4.412;2023-08-21T03:24:40;8.90;;;2.65;;
27796;SDS011;15177;50.844;4.412;2023-08-21T03:27:06;9.07;;;2.17;;
27796;SDS011;15177;50.844;4.412;2023-08-21T03:29:31;10.23;;;2.88;;
27796;SDS011;15177;50.844;4.412;2023-08-21T03:31:57;10.85;;;3.03;;
27796;SDS011;15177;50.844;4.412;2023-08-21T03:34:23;8.25;;;2.63;;
27796;SDS011;15177;50.844;4.412;2023-08-21T03:36:49;7.50;;;2.20;;
27796;SDS011;15177;50.844;4.412;2023-08-21T03:39:14;11.90;;;3.10;;
27796;SDS011;15177;50.844;4.412;2023-08-21T03:41:40;12.02;;;2.58;;
27796;SDS011;15177;50.844;4.412;2023-08-21T03:44:06;10.35;;;3.05;;
27796;SDS011;15177;50.844;4.412;2023-08-21T03:46:31;10.43;;;2.95;;
27796;SDS011;15177;50.844;4.412;2023-08-21T03:48:57;9.07;;;3.08;;
27796;SDS011;15177;50.844;4.412;2023-08-21T03:51:23;16.48;;;3.30;;
27796;SDS011;15177;50.844;4.412;2023-08-21T03:53:49;16.98;;;3.78;;
27796;SDS011;15177;50.844;4.412;2023-08-21T03:56:15;15.23;;;3.20;;
27796;SDS011;15177;50.844;4.412;2023-08-21T03:58:41;13.38;;;2.53;;
27796;SDS011;15177;50.844;4.412;2023-08-21T04:01:06;15.15;;;2.85;;
27796;SDS011;15177;50.844;4.412;2023-08-21T04:03:32;13.98;;;2.88;;
27796;SDS011;15177;50.844;4.412;2023-08-21T04:05:58;9.63;;;3.20;;
27796;SDS011;15177;50.844;4.412;2023-08-21T04:08:24;9.27;;;2.88;;
27796;SDS011;15177;50.844;4.412;2023-08-21T04:10:50;11.85;;;2.40;;
27796;SDS011;15177;50.844;4.412;2023-08-21T04:13:18;9.88;;;2.38;;
27796;SDS011;15177;50.844;4.412;2023-08-21T04:15:48;11.50;;;2.80;;
27796;SDS011;15177;50.844;4.412;2023-08-21T04:18:14;12.70;;;2.97;;
27796;SDS011;15177;50.844;4.412;2023-08-21T04:20:39;14.07;;;3.40;;
27796;SDS011;15177;50.844;4.412;2023-08-21T04:23:05;11.27;;;2.85;;
27796;SDS011;15177;50.844;4.412;2023-08-21T04:25:31;10.07;;;3.00;;
27796;SDS011;15177;50.844;4.412;2023-08-21T04:27:56;10.68;;;2.83;;
27796;SDS011;15177;50.844;4.412;2023-08-21T04:30:22;10.48;;;2.63;;
27796;SDS011;15177;50.844;4.412;2023-08-21T04:32:47;10.15;;;3.13;;
27796;SDS011;15177;50.844;4.412;2023-08-21T04:35:13;12.90;;;2.63;;
27796;SDS011;15177;50.844;4.412;2023-08-21T04:37:42;11.43;;;3.00;;
27796;SDS011;15177;50.844;4.412;2023-08-21T04:40:09;14.98;;;2.92;;
27796;SDS011;15177;50.844;4.412;2023-08-21T04:42:36;12.27;;;2.95;;
27796;SDS011;15177;50.844;4.412;2023-08-21T04:45:01;11.25;;;3.20;;
27796;SDS011;15177;50.844;4.412;2023-08-21T04:47:27;20.75;;;3.40;;
27796;SDS011;15177;50.844;4.412;2023-08-21T04:49:53;10.90;;;3.50;;
27796;SDS011;15177;50.844;4.412;2023-08-21T04:52:20;10.93;;;3.13;;
27796;SDS011;15177;50.844;4.412;2023-08-21T04:54:49;11.13;;;3.08;;
27796;SDS011;15177;50.844;4.412;2023-08-21T04:57:16;15.73;;;3.90;;
27796;SDS011;15177;50.844;4.412;2023-08-21T04:59:42;13.88;;;2.95;;
27796;SDS011;15177;50.844;4.412;2023-08-21T05:02:10;10.50;;;2.58;;
27796;SDS011;15177;50.844;4.412;2023-08-21T05:04:36;12.60;;;3.00;;
27796;SDS011;15177;50.844;4.412;2023-08-21T05:07:02;15.27;;;3.28;;
27796;SDS011;15177;50.844;4.412;2023-08-21T05:09:29;12.38;;;3.08;;
27796;SDS011;15177;50.844;4.412;2023-08-21T05:11:55;13.65;;;4.05;;
27796;SDS011;15177;50.844;4.412;2023-08-21T05:14:21;15.00;;;3.55;;
27796;SDS011;15177;50.844;4.412;2023-08-21T05:16:48;14.55;;;3.42;;
27796;SDS011;15177;50.844;4.412;2023-08-21T05:19:14;18.50;;;3.50;;
27796;SDS011;15177;50.844;4.412;2023-08-21T05:21:40;9.73;;;2.80;;
27796;SDS011;15177;50.844;4.412;2023-08-21T05:24:06;6.18;;;2.53;;
27796;SDS011;15177;50.844;4.412;2023-08-21T05:26:32;11.70;;;3.30;;
27796;SDS011;15177;50.844;4.412;2023-08-21T05:28:57;14.15;;;3.38;;
27796;SDS011;15177;50.844;4.412;2023-08-21T05:31:23;11.50;;;2.70;;
27796;SDS011;15177;50.844;4.412;2023-08-21T05:33:48;10.52;;;2.85;;
27796;SDS011;15177;50.844;4.412;2023-08-21T05:36:14;13.13;;;3.78;;
27796;SDS011;15177;50.844;4.412;2023-08-21T05:38:40;15.13;;;3.10;;
27796;SDS011;15177;50.844;4.412;2023-08-21T05:41:05;19.63;;;3.20;;
27796;SDS011;15177;50.844;4.412;2023-08-21T05:43:31;15.52;;;3.40;;
27796;SDS011;15177;50.844;4.412;2023-08-21T05:45:57;11.70;;;2.72;;
27796;SDS011;15177;50.844;4.412;2023-08-21T05:48:22;14.75;;;4.10;;
27796;SDS011;15177;50.844;4.412;2023-08-21T05:50:51;14.10;;;3.22;;
27796;SDS011;15177;50.844;4.412;2023-08-21T05:53:17;13.25;;;2.83;;
27796;SDS011;15177;50.844;4.412;2023-08-21T05:55:43;6.15;;;2.50;;
27796;SDS011;15177;50.844;4.412;2023-08-21T05:58:08;10.57;;;2.60;;
27796;SDS011;15177;50.844;4.412;2023-08-21T06:00:34;12.82;;;2.78;;
27796;SDS011;15177;50.844;4.412;2023-08-21T06:03:00;17.35;;;2.88;;
27796;SDS011;15177;50.844;4.412;2023-08-21T06:05:26;15.35;;;2.70;;
27796;SDS011;15177;50.844;4.412;2023-08-21T06:07:52;9.70;;;2.55;;
27796;SDS011;15177;50.844;4.412;2023-08-21T06:10:17;9.85;;;2.40;;
27796;SDS011;15177;50.844;4.412;2023-08-21T06:12:43;10.60;;;2.90;;
27796;SDS011;15177;50.844;4.412;2023-08-21T06:15:09;13.23;;;3.45;;
27796;SDS011;15177;50.844;4.412;2023-08-21T06:17:38;6.88;;;2.67;;
27796;SDS011;15177;50.844;4.412;2023-08-21T06:20:04;9.60;;;2.55;;
27796;SDS011;15177;50.844;4.412;2023-08-21T06:22:33;16.48;;;3.40;;
27796;SDS011;15177;50.844;4.412;2023-08-21T06:25:00;8.48;;;2.75;;
27796;SDS011;15177;50.844;4.412;2023-08-21T06:27:25;16.90;;;4.38;;
27796;SDS011;15177;50.844;4.412;2023-08-21T06:29:51;8.90;;;3.00;;
27796;SDS011;15177;50.844;4.412;2023-08-21T06:32:17;14.30;;;2.70;;
27796;SDS011;15177;50.844;4.412;2023-08-21T06:34:42;15.35;;;3.28;;
27796;SDS011;15177;50.844;4.412;2023-08-21T06:37:08;32.65;;;4.47;;
27796;SDS011;15177;50.844;4.412;2023-08-21T06:39:34;13.95;;;4.15;;
27796;SDS011;15177;50.844;4.412;2023-08-21T06:42:00;23.40;;;4.00;;
27796;SDS011;15177;50.844;4.412;2023-08-21T06:44:26;17.55;;;5.00;;
27796;SDS011;15177;50.844;4.412;2023-08-21T06:46:51;14.25;;;4.72;;
27796;SDS011;15177;50.844;4.412;2023-08-21T06:49:17;11.75;;;4.35;;
27796;SDS011;15177;50.844;4.412;2023-08-21T06:51:43;20.45;;;4.88;;
27796;SDS011;15177;50.844;4.412;2023-08-21T06:54:09;20.70;;;5.22;;
27796;SDS011;15177;50.844;4.412;2023-08-21T06:56:34;18.40;;;5.13;;
27796;SDS011;15177;50.844;4.412;2023-08-21T06:59:00;16.50;;;5.35;;
27796;SDS011;15177;50.844;4.412;2023-08-21T07:01:30;20.15;;;5.55;;
27796;SDS011;15177;50.844;4.412;2023-08-21T07:03:55;11.55;;;4.20;;
27796;SDS011;15177;50.844;4.412;2023-08-21T07:06:21;16.48;;;4.50;;
27796;SDS011;15177;50.844;4.412;2023-08-21T07:08:46;21.65;;;4.88;;
27796;SDS011;15177;50.844;4.412;2023-08-21T07:11:12;11.90;;;4.30;;
27796;SDS011;15177;50.844;4.412;2023-08-21T07:13:38;18.73;;;5.05;;
27796;SDS011;15177;50.844;4.412;2023-08-21T07:16:04;17.95;;;5.13;;
27796;SDS011;15177;50.844;4.412;2023-08-21T07:18:32;10.85;;;4.90;;
27796;SDS011;15177;50.844;4.412;2023-08-21T07:20:58;21.80;;;4.72;;
27796;SDS011;15177;50.844;4.412;2023-08-21T07:23:24;14.77;;;4.55;;
27796;SDS011;15177;50.844;4.412;2023-08-21T07:25:49;16.80;;;4.72;;
27796;SDS011;15177;50.844;4.412;2023-08-21T07:28:15;16.90;;;4.53;;
27796;SDS011;15177;50.844;4.412;2023-08-21T07:30:41;14.15;;;4.72;;
27796;SDS011;15177;50.844;4.412;2023-08-21T07:33:07;16.88;;;4.90;;
27796;SDS011;15177;50.844;4.412;2023-08-21T07:35:32;17.88;;;4.53;;
27796;SDS011;15177;50.844;4.412;2023-08-21T07:37:58;15.57;;;3.78;;
27796;SDS011;15177;50.844;4.412;2023-08-21T07:40:24;17.23;;;4.57;;
27796;SDS011;15177;50.844;4.412;2023-08-21T07:42:50;15.45;;;4.45;;
27796;SDS011;15177;50.844;4.412;2023-08-21T07:45:16;16.58;;;3.83;;
27796;SDS011;15177;50.844;4.412;2023-08-21T07:47:41;12.73;;;4.28;;
27796;SDS011;15177;50.844;4.412;2023-08-21T07:50:07;14.55;;;3.90;;
27796;SDS011;15177;50.844;4.412;2023-08-21T07:52:34;11.75;;;3.60;;
27796;SDS011;15177;50.844;4.412;2023-08-21T07:55:00;16.02;;;4.03;;
27796;SDS011;15177;50.844;4.412;2023-08-21T07:57:26;19.52;;;5.03;;
27796;SDS011;15177;50.844;4.412;2023-08-21T07:59:53;10.57;;;3.70;;
27796;SDS011;15177;50.844;4.412;2023-08-21T08:02:19;13.15;;;3.97;;
27796;SDS011;15177;50.844;4.412;2023-08-21T08:04:45;11.13;;;3.55;;
27796;SDS011;15177;50.844;4.412;2023-08-21T08:07:11;16.75;;;4.03;;
27796;SDS011;15177;50.844;4.412;2023-08-21T08:09:37;10.20;;;3.78;;
27796;SDS011;15177;50.844;4.412;2023-08-21T08:12:02;13.20;;;3.80;;
27796;SDS011;15177;50.844;4.412;2023-08-21T08:14:28;11.23;;;3.58;;
27796;SDS011;15177;50.844;4.412;2023-08-21T08:16:54;15.13;;;3.85;;
27796;SDS011;15177;50.844;4.412;2023-08-21T08:19:20;12.57;;;3.58;;
27796;SDS011;15177;50.844;4.412;2023-08-21T08:21:45;13.05;;;3.72;;
27796;SDS011;15177;50.844;4.412;2023-08-21T08:24:11;12.10;;;3.50;;
27796;SDS011;15177;50.844;4.412;2023-08-21T08:26:37;13.35;;;3.35;;
27796;SDS011;15177;50.844;4.412;2023-08-21T08:29:03;15.45;;;3.92;;
27796;SDS011;15177;50.844;4.412;2023-08-21T08:31:30;12.73;;;3.70;;
27796;SDS011;15177;50.844;4.412;2023-08-21T08:33:56;11.02;;;3.38;;
27796;SDS011;15177;50.844;4.412;2023-08-21T08:36:22;12.85;;;3.80;;
27796;SDS011;15177;50.844;4.412;2023-08-21T08:38:47;12.18;;;3.53;;
27796;SDS011;15177;50.844;4.412;2023-08-21T08:41:24;8.73;;;2.88;;
27796;SDS011;15177;50.844;4.412;2023-08-21T08:43:56;15.38;;;3.83;;
27796;SDS011;15177;50.844;4.412;2023-08-21T08:46:25;13.07;;;3.33;;
27796;SDS011;15177;50.844;4.412;2023-08-21T08:48:54;9.00;;;2.97;;
27796;SDS011;15177;50.844;4.412;2023-08-21T08:51:20;10.40;;;3.20;;
27796;SDS011;15177;50.844;4.412;2023-08-21T08:53:47;13.85;;;3.30;;
27796;SDS011;15177;50.844;4.412;2023-08-21T08:56:12;15.18;;;4.32;;
27796;SDS011;15177;50.844;4.412;2023-08-21T08:58:38;13.48;;;3.38;;
27796;SDS011;15177;50.844;4.412;2023-08-21T09:01:05;6.95;;;2.88;;
27796;SDS011;15177;50.844;4.412;2023-08-21T09:03:30;14.93;;;3.05;;
27796;SDS011;15177;50.844;4.412;2023-08-21T09:05:56;11.90;;;3.80;;
27796;SDS011;15177;50.844;4.412;2023-08-21T09:08:25;41.80;;;8.15;;
27796;SDS011;15177;50.844;4.412;2023-08-21T09:10:51;40.60;;;6.60;;
27796;SDS011;15177;50.844;4.412;2023-08-21T09:13:17;15.00;;;3.03;;
27796;SDS011;15177;50.844;4.412;2023-08-21T09:15:47;5.63;;;1.90;;
27796;SDS011;15177;50.844;4.412;2023-08-21T09:18:14;8.38;;;2.85;;
27796;SDS011;15177;50.844;4.412;2023-08-21T09:20:40;4.93;;;2.35;;
27796;SDS011;15177;50.844;4.412;2023-08-21T09:23:07;12.27;;;3.00;;
27796;SDS011;15177;50.844;4.412;2023-08-21T09:25:38;14.32;;;3.97;;
27796;SDS011;15177;50.844;4.412;2023-08-21T09:28:04;7.47;;;2.58;;
27796;SDS011;15177;50.844;4.412;2023-08-21T09:33:12;3.47;;;1.50;;
27796;SDS011;15177;50.844;4.412;2023-08-21T09:35:38;4.93;;;2.05;;
27796;SDS011;15177;50.844;4.412;2023-08-21T09:38:07;4.15;;;1.60;;
27796;SDS011;15177;50.844;4.412;2023-08-21T09:40:33;5.38;;;2.20;;
27796;SDS011;15177;50.844;4.412;2023-08-21T09:42:58;10.75;;;2.42;;
27796;SDS011;15177;50.844;4.412;2023-08-21T09:45:25;7.25;;;2.13;;
27796;SDS011;15177;50.844;4.412;2023-08-21T09:47:52;7.65;;;2.00;;
27796;SDS011;15177;50.844;4.412;2023-08-21T09:50:18;10.27;;;2.22;;
27796;SDS011;15177;50.844;4.412;2023-08-21T09:52:45;5.85;;;2.33;;
27796;SDS011;15177;50.844;4.412;2023-08-21T09:55:11;4.65;;;2.17;;
27796;SDS011;15177;50.844;4.412;2023-08-21T09:57:40;7.65;;;2.67;;
27796;SDS011;15177;50.844;4.412;2023-08-21T10:00:07;8.18;;;2.50;;
27796;SDS011;15177;50.844;4.412;2023-08-21T10:02:41;6.05;;;2.42;;
27796;SDS011;15177;50.844;4.412;2023-08-21T10:05:13;5.13;;;2.25;;
27796;SDS011;15177;50.844;4.412;2023-08-21T10:07:39;5.18;;;2.00;;
27796;SDS011;15177;50.844;4.412;2023-08-21T10:10:07;26.60;;;4.32;;
27796;SDS011;15177;50.844;4.412;2023-08-21T10:12:34;6.28;;;2.42;;
27796;SDS011;15177;50.844;4.412;2023-08-21T10:14:59;6.75;;;2.65;;
27796;SDS011;15177;50.844;4.412;2023-08-21T10:17:26;11.00;;;2.33;;
27796;SDS011;15177;50.844;4.412;2023-08-21T10:19:52;6.63;;;2.58;;
27796;SDS011;15177;50.844;4.412;2023-08-21T10:22:36;10.52;;;2.65;;
27796;SDS011;15177;50.844;4.412;2023-08-21T10:27:49;5.70;;;2.15;;
27796;SDS011;15177;50.844;4.412;2023-08-21T10:30:15;6.57;;;2.17;;
27796;SDS011;15177;50.844;4.412;2023-08-21T10:32:46;8.15;;;2.25;;
27796;SDS011;15177;50.844;4.412;2023-08-21T10:35:17;4.90;;;1.73;;
27796;SDS011;15177;50.844;4.412;2023-08-21T10:43:41;5.15;;;1.80;;
27796;SDS011;15177;50.844;4.412;2023-08-21T10:46:09;6.07;;;1.95;;
27796;SDS011;15177;50.844;4.412;2023-08-21T10:48:36;4.68;;;1.73;;
27796;SDS011;15177;50.844;4.412;2023-08-21T10:51:03;4.50;;;1.83;;
27796;SDS011;15177;50.844;4.412;2023-08-21T10:53:29;7.70;;;2.03;;
27796;SDS011;15177;50.844;4.412;2023-08-21T10:55:56;4.65;;;1.55;;
27796;SDS011;15177;50.844;4.412;2023-08-21T10:58:25;5.57;;;1.80;;
27796;SDS011;15177;50.844;4.412;2023-08-21T11:01:00;5.70;;;2.13;;
27796;SDS011;15177;50.844;4.412;2023-08-21T11:03:26;3.55;;;1.55;;
27796;SDS011;15177;50.844;4.412;2023-08-21T11:06:05;3.97;;;1.35;;
27796;SDS011;15177;50.844;4.412;2023-08-21T11:08:32;5.38;;;1.77;;
27796;SDS011;15177;50.844;4.412;2023-08-21T11:10:59;4.75;;;2.05;;
27796;SDS011;15177;50.844;4.412;2023-08-21T11:13:28;9.65;;;1.83;;
27796;SDS011;15177;50.844;4.412;2023-08-21T11:16:04;5.22;;;1.80;;
27796;SDS011;15177;50.844;4.412;2023-08-21T11:18:31;5.07;;;2.03;;
27796;SDS011;15177;50.844;4.412;2023-08-21T11:21:08;7.65;;;1.98;;
27796;SDS011;15177;50.844;4.412;2023-08-21T11:23:36;7.63;;;1.90;;
27796;SDS011;15177;50.844;4.412;2023-08-21T11:26:09;9.07;;;2.10;;
27796;SDS011;15177;50.844;4.412;2023-08-21T11:28:35;5.55;;;1.75;;
27796;SDS011;15177;50.844;4.412;2023-08-21T11:31:01;6.82;;;1.70;;
27796;SDS011;15177;50.844;4.412;2023-08-21T11:33:27;6.57;;;1.63;;
27796;SDS011;15177;50.844;4.412;2023-08-21T11:35:53;6.88;;;1.90;;
27796;SDS011;15177;50.844;4.412;2023-08-21T11:38:22;5.97;;;1.90;;
27796;SDS011;15177;50.844;4.412;2023-08-21T11:43:19;7.28;;;2.15;;
27796;SDS011;15177;50.844;4.412;2023-08-21T11:45:45;4.63;;;1.90;;
27796;SDS011;15177;50.844;4.412;2023-08-21T11:48:11;5.05;;;2.00;;
27796;SDS011;15177;50.844;4.412;2023-08-21T11:50:37;11.90;;;2.30;;
27796;SDS011;15177;50.844;4.412;2023-08-21T11:53:04;5.47;;;1.60;;
27796;SDS011;15177;50.844;4.412;2023-08-21T11:55:30;6.38;;;1.88;;
27796;SDS011;15177;50.844;4.412;2023-08-21T11:57:56;4.57;;;1.90;;
27796;SDS011;15177;50.844;4.412;2023-08-21T12:00:26;4.40;;;1.58;;
27796;SDS011;15177;50.844;4.412;2023-08-21T12:02:54;6.38;;;1.80;;
27796;SDS011;15177;50.844;4.412;2023-08-21T12:05:21;5.88;;;1.90;;
27796;SDS011;15177;50.844;4.412;2023-08-21T12:07:47;7.90;;;2.15;;
27796;SDS011;15177;50.844;4.412;2023-08-21T12:10:14;8.77;;;2.03;;
27796;SDS011;15177;50.844;4.412;2023-08-21T12:12:46;6.03;;;2.38;;
27796;SDS011;15177;50.844;4.412;2023-08-21T12:15:12;5.00;;;1.70;;
27796;SDS011;15177;50.844;4.412;2023-08-21T12:17:38;10.35;;;2.40;;
27796;SDS011;15177;50.844;4.412;2023-08-21T12:20:03;3.95;;;1.80;;
27796;SDS011;15177;50.844;4.412;2023-08-21T12:22:35;7.25;;;2.00;;
27796;SDS011;15177;50.844;4.412;2023-08-21T12:25:02;8.70;;;2.20;;
27796;SDS011;15177;50.844;4.412;2023-08-21T12:27:29;6.03;;;1.80;;
27796;SDS011;15177;50.844;4.412;2023-08-21T12:29:54;5.10;;;1.65;;
27796;SDS011;15177;50.844;4.412;2023-08-21T12:32:20;2.95;;;1.67;;
27796;SDS011;15177;50.844;4.412;2023-08-21T12:34:46;8.23;;;1.65;;
27796;SDS011;15177;50.844;4.412;2023-08-21T12:37:11;9.10;;;2.25;;
27796;SDS011;15177;50.844;4.412;2023-08-21T12:39:37;6.03;;;2.22;;
27796;SDS011;15177;50.844;4.412;2023-08-21T12:42:02;4.93;;;1.92;;
27796;SDS011;15177;50.844;4.412;2023-08-21T12:44:29;6.25;;;2.10;;
27796;SDS011;15177;50.844;4.412;2023-08-21T12:46:55;6.65;;;1.88;;
27796;SDS011;15177;50.844;4.412;2023-08-21T12:49:20;6.40;;;1.77;;
27796;SDS011;15177;50.844;4.412;2023-08-21T12:51:47;7.53;;;2.25;;
27796;SDS011;15177;50.844;4.412;2023-08-21T12:54:12;7.70;;;2.30;;
27796;SDS011;15177;50.844;4.412;2023-08-21T12:56:38;8.35;;;2.30;;
27796;SDS011;15177;50.844;4.412;2023-08-21T12:59:04;6.07;;;1.63;;
27796;SDS011;15177;50.844;4.412;2023-08-21T13:01:30;8.45;;;2.63;;
27796;SDS011;15177;50.844;4.412;2023-08-21T13:03:56;9.32;;;2.10;;
27796;SDS011;15177;50.844;4.412;2023-08-21T13:06:22;7.30;;;2.50;;
27796;SDS011;15177;50.844;4.412;2023-08-21T13:08:48;11.88;;;3.17;;
27796;SDS011;15177;50.844;4.412;2023-08-21T13:11:13;8.82;;;2.22;;
27796;SDS011;15177;50.844;4.412;2023-08-21T13:13:40;7.80;;;2.03;;
27796;SDS011;15177;50.844;4.412;2023-08-21T13:16:05;11.98;;;2.05;;
27796;SDS011;15177;50.844;4.412;2023-08-21T13:18:31;4.35;;;1.88;;
27796;SDS011;15177;50.844;4.412;2023-08-21T13:20:57;5.55;;;1.92;;
27796;SDS011;15177;50.844;4.412;2023-08-21T13:23:22;5.00;;;2.03;;
27796;SDS011;15177;50.844;4.412;2023-08-21T13:25:48;4.50;;;1.98;;
27796;SDS011;15177;50.844;4.412;2023-08-21T13:28:14;8.77;;;2.33;;
27796;SDS011;15177;50.844;4.412;2023-08-21T13:30:40;4.70;;;2.20;;
27796;SDS011;15177;50.844;4.412;2023-08-21T13:33:06;9.02;;;2.55;;
27796;SDS011;15177;50.844;4.412;2023-08-21T13:35:32;5.63;;;1.90;;
27796;SDS011;15177;50.844;4.412;2023-08-21T13:37:58;6.82;;;1.98;;
27796;SDS011;15177;50.844;4.412;2023-08-21T13:40:24;7.78;;;2.38;;
27796;SDS011;15177;50.844;4.412;2023-08-21T13:42:50;5.47;;;2.13;;
27796;SDS011;15177;50.844;4.412;2023-08-21T13:45:17;6.05;;;2.35;;
27796;SDS011;15177;50.844;4.412;2023-08-21T13:47:49;5.68;;;1.77;;
27796;SDS011;15177;50.844;4.412;2023-08-21T13:50:15;6.40;;;2.08;;
27796;SDS011;15177;50.844;4.412;2023-08-21T13:52:42;2.33;;;1.42;;
27796;SDS011;15177;50.844;4.412;2023-08-21T13:55:09;6.28;;;1.73;;
27796;SDS011;15177;50.844;4.412;2023-08-21T13:57:39;5.90;;;2.13;;
27796;SDS011;15177;50.844;4.412;2023-08-21T14:00:05;7.57;;;2.38;;
27796;SDS011;15177;50.844;4.412;2023-08-21T14:02:32;7.05;;;1.95;;
27796;SDS011;15177;50.844;4.412;2023-08-21T14:04:59;13.40;;;2.85;;
27796;SDS011;15177;50.844;4.412;2023-08-21T14:07:25;4.97;;;1.77;;
27796;SDS011;15177;50.844;4.412;2023-08-21T14:09:51;5.75;;;1.95;;
27796;SDS011;15177;50.844;4.412;2023-08-21T14:12:17;5.18;;;2.03;;
27796;SDS011;15177;50.844;4.412;2023-08-21T14:14:42;4.68;;;1.70;;
27796;SDS011;15177;50.844;4.412;2023-08-21T14:17:08;3.47;;;1.38;;
27796;SDS011;15177;50.844;4.412;2023-08-21T14:19:33;2.22;;;1.60;;
27796;SDS011;15177;50.844;4.412;2023-08-21T14:21:59;4.00;;;1.40;;
27796;SDS011;15177;50.844;4.412;2023-08-21T14:24:25;3.60;;;1.85;;
27796;SDS011;15177;50.844;4.412;2023-08-21T14:26:51;10.45;;;1.98;;
27796;SDS011;15177;50.844;4.412;2023-08-21T14:29:17;3.45;;;1.70;;
27796;SDS011;15177;50.844;4.412;2023-08-21T14:31:42;7.88;;;1.88;;
27796;SDS011;15177;50.844;4.412;2023-08-21T14:34:08;8.43;;;2.08;;
27796;SDS011;15177;50.844;4.412;2023-08-21T14:36:33;5.15;;;1.98;;
27796;SDS011;15177;50.844;4.412;2023-08-21T14:38:59;9.35;;;1.85;;
27796;SDS011;15177;50.844;4.412;2023-08-21T14:41:25;6.80;;;2.28;;
27796;SDS011;15177;50.844;4.412;2023-08-21T14:43:51;6.95;;;1.80;;
27796;SDS011;15177;50.844;4.412;2023-08-21T14:46:16;3.00;;;1.33;;
27796;SDS011;15177;50.844;4.412;2023-08-21T14:48:42;3.85;;;1.55;;
27796;SDS011;15177;50.844;4.412;2023-08-21T14:51:08;3.95;;;1.42;;
27796;SDS011;15177;50.844;4.412;2023-08-21T14:53:33;5.85;;;1.65;;
27796;SDS011;15177;50.844;4.412;2023-08-21T14:55:59;4.97;;;1.40;;